Latest Weather Observations for Falls Creek

IDV60801

Issued at 11:03 am EST Sunday 24 September 2017 (issued every 30 minutes, with the page automatically refreshed every 10 minutes)

About weather observations | Map of weather stations | Latest weather observations for VIC | Other Formats
Station Details ID: 083084 Name: FALLS CREEK Lat: -36.87 Lon: 147.28 Height: 1765.0 m
Data from the previous 72 hours. | See also: Recent months at Falls Creek
Date/Time
EST
Temp
°C
App
Temp
°C
Dew
Point
°C
Rel
Hum
%
Delta-T
°C
Wind Press
QNH
hPa
Press
MSL
hPa
Rain since
9am
mm
Dir  Spd
km/h
Gust
km/h
Spd
kts
Gust
kts
24/11:00am 0.8 -9.2 0.7 99 0.0 NNW 43 70 23 38 1000.4 1000.0 1.0
24/10:32am 0.8 -10.6 0.7 99 0.0 NNW 50 69 27 37 1000.4 1000.0 0.6
24/10:30am 0.7 -10.7 0.4 98 0.1 NW 50 67 27 36 1000.6 1000.3 0.6
24/10:00am 0.5 -10.5 0.4 99 0.0 NW 48 74 26 40 1000.8 1000.5 0.0
24/09:30am 0.4 -9.9 0.3 99 0.0 NW 44 76 24 41 1000.2 999.9 0.0
24/09:00am 0.5 -10.2 0.4 99 0.0 NW 46 85 25 46 1001.1 1000.8 0.0
24/08:57am 0.4 -11.0 0.3 99 0.0 NW 50 85 27 46 1001.0 1000.7 0.0
24/08:55am 0.3 -11.2 0.2 99 0.0 NW 50 85 27 46 1000.7 1000.4 0.0
24/08:30am 0.9 -9.1 0.8 99 0.0 NNW 43 70 23 38 1000.2 999.9 0.0
24/08:00am 0.8 -8.1 0.7 99 0.0 NNW 37 57 20 31 1000.2 999.9 0.0
24/07:30am 0.5 -7.1 0.4 99 0.0 NNW 30 57 16 31 1001.2 1000.9 0.0
24/07:00am 0.5 -8.8 0.4 99 0.0 NNW 39 63 21 34 1001.9 1001.7 0.0
24/06:30am 0.8 -7.2 0.7 99 0.0 NNW 32 50 17 27 1001.9 1001.7 0.0
24/06:00am 0.8 -7.3 0.7 99 0.0 NNW 33 57 18 31 1002.0 1001.8 0.0
24/05:30am 1.1 -6.8 1.0 99 0.0 NW 32 52 17 28 1002.1 1001.9 0.0
24/05:00am 1.5 -6.4 1.2 98 0.1 NW 32 50 17 27 1002.1 1001.9 0.0
24/04:32am 1.8 -6.0 1.5 98 0.1 NNW 32 50 17 27 1002.0 1001.8 0.0
24/04:30am 1.9 -6.1 1.6 98 0.1 NNW 33 50 18 27 1002.1 1001.9 0.0
24/04:21am 2.0 -5.8 1.7 98 0.1 NNW 32 50 17 27 1002.3 1002.0 0.0
24/04:00am 2.0 -4.7 1.7 98 0.1 NNW 26 39 14 21 1002.1 1001.9 0.0
24/03:30am 2.1 -5.4 1.4 95 0.3 NNW 30 37 16 20 1002.1 1001.9 0.0
24/03:00am 2.6 -4.6 1.0 89 0.7 NNW 28 41 15 22 1002.5 1002.3 0.0
24/02:30am 3.0 -4.6 0.7 85 1.0 NNW 30 43 16 23 1002.1 1001.9 0.0
24/02:00am 3.8 -2.8 -0.4 74 1.8 NNW 24 33 13 18 1002.0 1001.8 0.0
24/01:30am 4.5 -3.0 -1.1 67 2.3 NNW 28 39 15 21 1002.1 1001.9 0.0
24/01:00am 5.6 -1.6 -2.2 57 3.2 NNW 26 39 14 21 1002.5 1002.3 0.0
24/12:30am 6.9 -1.2 -2.8 50 4.0 NNW 30 43 16 23 1002.5 1002.3 0.0
24/12:00am 7.2 0.3 -2.8 49 4.1 NW 24 41 13 22 1002.9 1002.6 0.0
 
Date/Time
EST
Temp
°C
App
Temp
°C
Dew
Point
°C
Rel
Hum
%
Delta-T
°C
Wind Press
QNH
hPa
Press
MSL
hPa
Rain since
9am
mm
Dir  Spd
km/h
Gust
km/h
Spd
kts
Gust
kts
23/11:30pm 7.5 0.7 0.7 62 3.0 NW 26 39 14 21 1003.2 1003.0 0.0
23/11:00pm 7.7 1.5 2.4 69 2.5 WNW 24 32 13 17 1003.5 1003.3 0.0
23/10:30pm 8.7 2.9 2.5 65 2.9 NW 22 33 12 18 1003.2 1003.0 0.0
23/10:00pm 9.4 2.0 2.0 60 3.5 NW 30 44 16 24 1003.1 1002.9 0.0
23/09:30pm 10.3 3.3 1.7 55 4.0 NW 28 48 15 26 1002.9 1002.6 0.0
23/09:01pm 10.5 2.1 1.6 54 4.2 NW 35 56 19 30 1002.9 1002.6 0.0
23/09:00pm 10.4 2.4 1.8 55 4.1 NW 33 50 18 27 1002.9 1002.6 0.0
23/08:45pm 10.7 3.4 2.3 56 4.0 NW 30 54 16 29 1003.2 1003.0 0.0
23/08:36pm 11.3 2.6 2.3 54 4.3 NW 37 61 20 33 1002.7 1002.5 0.0
23/08:32pm 10.8 2.8 1.9 54 4.2 NW 33 54 18 29 1002.9 1002.6 0.0
23/08:30pm 10.8 2.9 2.1 55 4.1 NW 33 59 18 32 1003.0 1002.8 0.0
23/08:00pm 11.7 1.6 1.4 49 4.9 WNW 44 78 24 42 1002.7 1002.5 0.0
23/07:30pm 12.1 2.8 0.5 45 5.4 NW 39 63 21 34 1002.1 1001.9 0.0
23/07:00pm 12.5 3.2 0.3 43 5.7 NW 39 67 21 36 1002.1 1001.9 0.0
23/06:30pm 13.1 2.7 -0.2 40 6.1 NW 44 74 24 40 1001.9 1001.7 0.0
23/06:28pm 13.1 2.9 -0.2 40 6.1 NW 43 74 23 40 1001.8 1001.5 0.0
23/06:12pm 12.1 3.9 0.2 44 5.5 NW 33 56 18 30 1001.9 1001.7 0.0
23/06:00pm 12.1 3.1 -0.1 43 5.6 NNW 37 50 20 27 1002.0 1001.8 0.0
23/05:30pm 12.0 2.3 0.5 45 5.3 NNW 41 63 22 34 1001.2 1000.9 0.0
23/05:00pm 13.4 1.1 -0.6 38 6.4 NNW 54 91 29 49 999.8 999.4 0.0
23/04:30pm 13.3 1.3 -1.1 37 6.5 NNW 52 80 28 43 999.8 999.4 0.0
23/04:27pm 13.3 1.3 -1.1 37 6.5 NNW 52 72 28 39 999.8 999.4 0.0
23/04:25pm 13.0 1.4 -1.0 38 6.3 NNW 50 72 27 39 1000.2 999.9 0.0
23/04:14pm 13.8 1.3 -1.8 34 7.0 N 54 85 29 46 1000.1 999.8 0.0
23/04:00pm 12.4 2.1 -0.8 40 6.0 N 43 69 23 37 1001.3 1001.0 0.0
23/03:38pm 12.2 3.4 -1.3 39 6.0 N 35 54 19 29 1002.3 1002.0 0.0
23/03:30pm 12.1 3.8 -1.4 39 6.0 N 32 44 17 24 1002.4 1002.2 0.0
23/03:11pm 12.0 3.8 -0.8 41 5.7 NNW 32 54 17 29 1002.9 1002.6 0.0
23/03:00pm 11.7 3.3 -0.8 42 5.6 NNW 33 48 18 26 1003.5 1003.3 0.0
23/02:30pm 11.9 3.2 -0.3 43 5.5 N 35 46 19 25 1003.8 1003.6 0.0
23/02:00pm 12.1 2.7 -0.1 43 5.6 NNW 39 54 21 29 1004.6 1004.5 0.0
23/01:30pm 12.9 3.0 -0.7 39 6.2 N 41 52 22 28 1004.2 1004.0 0.0
23/01:14pm 12.8 2.5 -1.1 38 6.2 N 43 63 23 34 1004.3 1004.1 0.0
23/01:00pm 12.6 2.7 -1.0 39 6.1 NNW 41 57 22 31 1005.0 1004.9 0.0
23/12:33pm 13.2 3.6 -1.5 36 6.6 NNW 39 57 21 31 1005.4 1005.2 0.0
23/12:30pm 13.4 3.8 -1.3 36 6.6 NNW 39 52 21 28 1005.5 1005.4 0.0
23/12:00pm 13.0 2.4 -1.7 36 6.6 NNW 44 67 24 36 1006.0 1005.9 0.0
23/11:30am 12.8 1.7 -2.6 34 6.7 NNW 46 69 25 37 1006.2 1006.1 0.0
23/11:05am 12.5 2.8 -2.5 35 6.5 NNW 39 57 21 31 1007.3 1007.2 0.0
23/11:00am 12.6 2.0 -3.2 33 6.8 NNW 43 57 23 31 1007.3 1007.2 0.0
23/10:30am 13.2 2.6 -3.1 32 7.0 NNW 43 63 23 34 1007.3 1007.2 0.0
23/10:00am 12.3 1.8 -2.3 36 6.4 NNW 43 63 23 34 1008.0 1008.0 0.0
23/09:30am 11.2 1.5 -2.2 39 5.8 NNW 39 57 21 31 1008.8 1008.8 0.0
23/09:26am 10.9 1.2 -2.1 40 5.6 NNW 39 57 21 31 1009.2 1009.2 0.0
23/09:00am 9.9 0.0 -3.7 38 5.6 NNW 39 52 21 28 1009.4 1009.5 0.0
23/08:31am 9.5 -0.3 -6.8 31 6.2 NNW 37 57 20 31 1009.8 1009.8 0.0
23/08:30am 9.3 -0.5 -6.9 31 6.2 NW 37 48 20 26 1009.8 1009.8 0.0
23/08:00am 9.2 -0.7 -7.4 30 6.3 NNW 37 50 20 27 1009.5 1009.6 0.0
23/07:30am 8.5 -1.4 -7.2 32 5.9 NNW 37 46 20 25 1009.9 1010.0 0.0
23/07:00am 9.0 -1.3 -7.6 30 6.2 NNW 39 52 21 28 1009.8 1009.8 0.0
23/06:30am 8.2 -0.3 -6.7 34 5.6 NNW 30 39 16 21 1010.4 1010.5 0.0
23/06:00am 8.1 0.0 -6.8 34 5.6 NNW 28 35 15 19 1010.4 1010.5 0.0
23/05:30am 8.5 0.0 -6.8 33 5.8 NNW 30 35 16 19 1010.2 1010.3 0.0
23/05:00am 8.2 -0.3 -6.7 34 5.6 NNW 30 39 16 21 1010.2 1010.3 0.0
23/04:30am 8.4 -0.6 -6.5 34 5.7 NNW 33 43 18 23 1010.4 1010.5 0.0
23/04:00am 8.3 -1.1 -6.2 35 5.6 NNW 35 48 19 26 1010.6 1010.7 0.0
23/03:30am 8.4 -1.7 -6.1 35 5.6 NNW 39 50 21 27 1010.6 1010.7 0.0
23/03:00am 8.4 -2.1 -5.8 36 5.5 NNW 41 52 22 28 1010.8 1010.9 0.0
23/02:30am 8.3 -2.1 -5.5 37 5.4 NNW 41 54 22 29 1011.0 1011.1 0.0
23/02:00am 8.8 -2.1 -5.8 35 5.7 NNW 43 57 23 31 1011.2 1011.3 0.0
23/01:30am 9.1 -2.0 -5.9 34 5.8 NNW 44 59 24 32 1011.7 1011.8 0.0
23/01:08am 9.1 -1.4 -5.9 34 5.8 NNW 41 59 22 32 1012.1 1012.3 0.0
23/01:00am 9.1 -2.0 -5.9 34 5.8 NNW 44 59 24 32 1012.3 1012.4 0.0
23/12:33am 9.4 -0.7 -5.6 34 5.9 NNW 39 57 21 31 1012.6 1012.8 0.0
23/12:30am 9.2 -0.5 -5.8 34 5.9 NNW 37 52 20 28 1012.7 1012.9 0.0
23/12:09am 9.2 -0.1 -5.1 36 5.7 NNW 35 56 19 30 1013.1 1013.3 0.0
23/12:00am 9.0 -0.2 -4.9 37 5.5 NNW 35 46 19 25 1013.3 1013.6 0.0
 
Date/Time
EST
Temp
°C
App
Temp
°C
Dew
Point
°C
Rel
Hum
%
Delta-T
°C
Wind Press
QNH
hPa
Press
MSL
hPa
Rain since
9am
mm
Dir  Spd
km/h
Gust
km/h
Spd
kts
Gust
kts
22/11:30pm 8.8 -0.8 -4.4 39 5.3 NNW 37 54 20 29 1013.3 1013.6 0.0
22/11:00pm 8.9 -1.0 -3.9 40 5.2 NNW 39 59 21 32 1013.3 1013.6 0.0
22/10:59pm 9.1 -0.8 -4.1 39 5.4 NNW 39 59 21 32 1013.3 1013.6 0.0
22/10:30pm 9.0 -0.1 -3.5 41 5.1 NNW 35 48 19 26 1013.6 1013.8 0.0
22/10:00pm 9.0 0.5 -3.5 41 5.1 NNW 32 50 17 27 1013.8 1014.0 0.0
22/09:30pm 9.0 0.3 -3.2 42 5.0 NNW 33 44 18 24 1013.9 1014.2 0.0
22/09:00pm 9.6 0.6 -3.0 41 5.3 NNW 35 50 19 27 1014.2 1014.4 0.0
22/08:30pm 9.3 2.0 -2.9 42 5.1 NNW 26 35 14 19 1014.5 1014.8 0.0
22/08:00pm 9.4 1.3 -2.8 42 5.1 NNW 30 39 16 21 1014.4 1014.7 0.0
22/07:30pm 9.1 1.4 -3.1 42 5.1 NNW 28 35 15 19 1014.5 1014.8 0.0
22/07:00pm 8.9 1.3 -2.4 45 4.8 NNW 28 33 15 18 1014.4 1014.7 0.0
22/06:30pm 8.5 0.6 -1.9 48 4.4 NNW 30 37 16 20 1014.2 1014.4 0.0
22/06:00pm 8.2 1.2 -0.5 54 3.8 NNW 26 32 14 17 1014.0 1014.3 0.0
22/05:30pm 8.1 1.4 -0.9 53 3.9 NNW 24 32 13 17 1014.0 1014.3 0.0
22/05:00pm 8.7 2.1 -0.6 52 4.1 NNW 24 35 13 19 1014.2 1014.4 0.0
22/04:30pm 8.0 1.9 0.3 58 3.4 NNW 22 33 12 18 1014.3 1014.5 0.0
22/04:00pm 8.3 1.3 -0.4 54 3.8 NNW 26 35 14 19 1014.0 1014.3 0.0
22/03:30pm 9.1 2.1 -0.2 52 4.1 NNW 26 35 14 19 1014.0 1014.3 0.0
22/03:00pm 8.7 1.7 -0.6 52 4.1 NNW 26 33 14 18 1014.0 1014.3 0.0
22/02:30pm 9.2 1.5 -0.4 51 4.2 NNW 30 39 16 21 1013.9 1014.2 0.0
22/02:00pm 9.1 0.9 -0.8 50 4.3 NW 32 43 17 23 1013.9 1014.2 0.0
22/01:30pm 8.9 0.7 -0.9 50 4.3 NW 32 44 17 24 1013.9 1014.2 0.0
22/01:00pm 8.5 0.3 -1.3 50 4.2 NNW 32 43 17 23 1013.9 1014.2 0.0
22/12:30pm 8.4 0.1 -2.0 48 4.4 NNW 32 43 17 23 1014.0 1014.3 0.0
22/12:00pm 7.9 -0.5 -2.4 48 4.3 NW 32 43 17 23 1014.0 1014.3 0.0
22/11:30am 7.7 -0.7 -2.6 48 4.3 NNW 32 43 17 23 1014.0 1014.3 0.0
22/11:00am 7.1 -1.6 -3.1 48 4.2 NNW 33 46 18 25 1014.3 1014.5 0.0
22/10:30am 6.7 -2.8 -3.5 48 4.1 NNW 37 48 20 26 1014.2 1014.4 0.0
22/10:00am 6.4 -2.3 -3.8 48 4.1 NNW 33 44 18 24 1014.3 1014.5 0.0
22/09:30am 6.1 -2.7 -4.1 48 4.0 NNW 33 44 18 24 1014.3 1014.5 0.0
22/09:00am 5.5 -3.6 -3.8 51 3.7 NNW 35 48 19 26 1014.2 1014.4 0.0
22/08:30am 5.2 -3.4 -3.8 52 3.5 NNW 32 46 17 25 1014.0 1014.3 0.0
22/08:00am 5.4 -3.4 -3.9 51 3.6 NNW 33 50 18 27 1013.8 1014.0 0.0
22/07:30am 4.6 -4.1 -3.4 56 3.1 NNW 33 46 18 25 1013.6 1013.8 0.0
22/07:00am 4.7 -3.8 -3.1 57 3.1 NNW 32 44 17 24 1013.8 1014.0 0.0
22/06:30am 4.5 -4.0 -3.3 57 3.1 NNW 32 44 17 24 1013.7 1013.9 0.0
22/06:00am 4.6 -4.1 -3.2 57 3.1 NNW 33 46 18 25 1013.7 1013.9 0.0
22/05:46am 4.8 -3.7 -3.2 56 3.2 NNW 32 50 17 27 1013.7 1013.9 0.0
22/05:30am 4.8 -3.9 -3.2 56 3.2 NNW 33 43 18 23 1013.7 1013.9 0.0
22/05:00am 4.8 -3.7 -3.0 57 3.1 NNW 32 43 17 23 1013.7 1013.9 0.0
22/04:30am 4.8 -3.2 -2.7 58 3.0 NW 30 41 16 22 1013.6 1013.8 0.0
22/04:00am 4.8 -3.2 -2.5 59 2.9 NNW 30 41 16 22 1013.6 1013.8 0.0
22/03:30am 4.9 -3.5 -2.4 59 2.9 NNW 32 46 17 25 1013.6 1013.8 0.0
22/03:00am 5.1 -3.3 -2.5 58 3.1 NW 32 41 17 22 1013.8 1014.0 0.0
22/02:30am 5.1 -3.5 -2.2 59 3.0 NW 33 44 18 24 1014.0 1014.3 0.0
22/02:00am 5.1 -3.5 -2.2 59 3.0 NNW 33 44 18 24 1014.5 1014.8 0.0
22/01:30am 5.4 -3.9 -2.2 58 3.1 NNW 37 48 20 26 1014.6 1014.9 0.0
22/01:00am 5.3 -3.6 -2.0 59 3.0 NNW 35 46 19 25 1014.8 1015.0 0.0
22/12:30am 5.4 -3.5 -2.2 58 3.1 NNW 35 54 19 29 1015.0 1015.3 0.0
22/12:00am 5.5 -4.2 -1.9 59 3.0 NNW 39 52 21 28 1014.9 1015.2 0.0
 
Date/Time
EST
Temp
°C
App
Temp
°C
Dew
Point
°C
Rel
Hum
%
Delta-T
°C
Wind Press
QNH
hPa
Press
MSL
hPa
Rain since
9am
mm
Dir  Spd
km/h
Gust
km/h
Spd
kts
Gust
kts
21/11:30pm 5.1 -4.4 -1.1 64 2.6 NNW 39 56 21 30 1014.9 1015.2 0.0
21/11:00pm 5.0 -4.5 -1.0 65 2.5 NNW 39 50 21 27 1015.0 1015.3 0.0
21/10:30pm 4.6 -4.5 -0.6 69 2.2 NNW 37 50 20 27 1015.0 1015.3 0.0
21/10:00pm 4.8 -4.7 -0.8 67 2.4 NNW 39 52 21 28 1014.9 1015.2 0.0
21/09:45pm 5.1 -4.8 -0.9 65 2.5 NNW 41 59 22 32 1014.6 1014.9 0.0
21/09:30pm 4.9 -5.4 -0.9 66 2.4 NNW 43 56 23 30 1014.8 1015.0 0.0
21/09:20pm 5.1 -4.4 -0.7 66 2.4 NNW 39 57 21 31 1014.8 1015.0 0.0
21/09:00pm 4.9 -5.3 -0.5 68 2.3 NNW 43 56 23 30 1014.8 1015.0 0.0
21/08:30pm 4.7 -4.7 -0.3 70 2.1 NNW 39 56 21 30 1015.0 1015.3 0.0
21/08:00pm 4.5 -5.3 -0.3 71 2.0 NNW 41 57 22 31 1014.9 1015.2 0.0
21/07:30pm 4.2 -4.8 -0.2 73 1.9 NNW 37 50 20 27 1014.9 1015.2 0.0
21/07:18pm 4.3 -4.7 -0.1 73 1.9 NNW 37 56 20 30 1014.9 1015.2 0.0
21/07:00pm 4.3 -4.3 -0.1 73 1.9 NNW 35 46 19 25 1014.9 1015.2 0.0
21/06:30pm 4.0 -4.6 0.3 77 1.6 NNW 35 43 19 23 1014.5 1014.8 0.0
21/06:00pm 3.6 -4.0 0.3 79 1.4 NNW 30 39 16 21 1014.5 1014.8 0.0
21/05:30pm 3.9 -4.1 0.2 77 1.6 NNW 32 41 17 22 1014.4 1014.7 0.0
21/05:00pm 4.2 -3.9 -0.2 73 1.9 NNW 32 41 17 22 1014.3 1014.5 0.0
21/04:30pm 4.5 -3.5 0.1 73 1.9 NNW 32 46 17 25 1014.0 1014.3 0.0
21/04:00pm 5.1 -2.8 1.0 75 1.8 NNW 32 43 17 23 1013.8 1014.0 0.0
21/03:48pm 5.5 -2.1 0.3 69 2.3 NNW 30 48 16 26 1013.8 1014.0 0.0
21/03:30pm 5.7 -2.3 0.5 69 2.3 NNW 32 44 17 24 1013.9 1014.2 0.0
21/03:00pm 5.6 -2.8 -0.9 63 2.7 NNW 33 46 18 25 1013.5 1013.7 0.0
21/02:30pm 5.5 -2.8 -1.6 60 2.9 NNW 32 43 17 23 1013.6 1013.8 0.0
21/02:11pm 5.5 -2.3 -1.0 63 2.7 NNW 30 48 16 26 1013.7 1013.9 0.0
21/02:00pm 5.7 -2.0 0.1 67 2.4 NNW 30 43 16 23 1013.9 1014.2 0.0
21/01:30pm 5.2 -2.8 0.2 70 2.2 NNW 32 43 17 23 1014.0 1014.3 0.0
21/01:00pm 4.7 -3.0 -0.1 71 2.0 NNW 30 41 16 22 1014.8 1015.0 0.0
21/12:30pm 4.3 -4.5 -1.1 68 2.2 N 35 52 19 28 1015.0 1015.3 0.0
21/12:29pm 4.4 -4.0 -1.0 68 2.2 N 33 52 18 28 1014.9 1015.2 0.0
21/12:00pm 4.3 -4.5 -1.5 66 2.4 NNW 35 44 19 24 1015.5 1015.8 0.0
21/11:30am 4.4 -3.9 -1.8 64 2.5 NNW 32 43 17 23 1015.8 1016.2 0.0

Other Formats:

Comma delimited format used in spreadsheet applications
http://www.bom.gov.au/fwo/IDV60801/IDV60801.94903.axf

JavaScript Object Notation format (JSON) in row-major order
http://www.bom.gov.au/fwo/IDV60801/IDV60801.94903.json